EDT,Max TemperatureF,Mean TemperatureF,Min TemperatureF,Max Dew PointF,MeanDew PointF,Min DewpointF,Max Humidity, Mean Humidity, Min Humidity, Max Sea Level PressureIn, Mean Sea Level PressureIn, Min Sea Level PressureIn, Max VisibilityMiles, Mean VisibilityMiles, Min VisibilityMiles, Max Wind SpeedMPH, Mean Wind SpeedMPH, Max Gust SpeedMPH,PrecipitationIn, CloudCover, Events, WindDirDegrees
2013-6-1,75,63,51,66,61,51,100,91,69,29.79,29.71,29.68,10,9,1,12,4,23,0.00,4,Rain,197
2013-6-2,59,50,41,58,43,36,100,91,72,30.05,29.87,29.65,10,9,1,18,9,24,0.00,6,Rain,287
2013-6-3,57,46,36,47,41,35,98,78,47,30.16,30.08,30.04,10,10,10,22,7,26,0.00,0,,266
2013-6-4,56,46,35,44,37,31,100,69,39,30.26,30.23,30.17,10,10,7,7,1,,0.00,2,,332
2013-6-5,57,52,48,52,46,39,85,76,63,30.23,30.19,30.12,10,10,10,10,3,,0.00,8,Rain,92
2013-6-6,67,60,52,46,41,36,69,53,33,30.12,30.04,30.00,10,10,10,17,8,23,0.00,5,,82
2013-6-7,65,56,46,48,44,41,93,67,45,30.02,29.99,29.94,10,10,10,8,4,,0.00,0,,342
2013-6-8,66,56,46,54,45,39,95,68,38,30.10,30.02,29.95,10,10,7,8,2,,0.00,2,,263
2013-6-9,75,61,47,56,51,45,96,67,46,30.15,30.09,30.02,10,10,10,14,5,18,0.00,2,,111
2013-6-10,70,64,58,62,57,51,97,79,60,30.02,29.90,29.84,10,10,10,13,9,,0.00,6,Rain,86
2013-6-11,73,64,54,63,59,55,100,92,69,29.92,29.88,29.86,10,8,1,10,3,16,0.00,6,,341
2013-6-12,73,62,52,64,56,51,100,85,56,29.95,29.88,29.79,10,6,0,8,2,,0.00,3,Fog,355
2013-6-13,64,58,52,56,53,49,95,83,64,30.07,29.92,29.77,10,10,10,14,7,20,0.00,1,,335
2013-6-14,65,56,46,49,43,28,93,67,26,30.18,30.12,30.07,10,10,10,10,5,,0.00,0,,338
2013-6-15,72,58,45,60,49,40,98,68,41,30.07,30.00,29.86,10,10,5,12,3,20,0.00,3,Rain,170
2013-6-16,76,65,54,64,58,52,100,89,56,29.89,29.83,29.77,10,6,0,18,6,29,0.00,6,Fog-Rain,251
2013-6-17,61,56,52,57,54,52,100,93,78,30.06,29.96,29.85,10,9,0,12,5,,0.00,5,Fog,2
2013-6-18,65,56,47,53,47,38,98,73,36,30.16,30.12,30.06,10,10,10,12,5,,0.00,0,,360
2013-6-19,66,56,46,51,47,43,94,69,46,30.22,30.18,30.14,10,10,10,12,4,,0.00,0,,97
2013-6-20,78,64,50,57,51,41,88,64,34,30.20,30.17,30.14,10,10,10,13,5,21,0.00,0,,203
2013-6-21,83,71,59,66,60,54,91,72,51,30.19,30.08,29.96,10,10,10,20,6,29,0.00,4,Rain,158
2013-6-22,71,64,57,64,60,57,100,95,74,30.12,30.06,30.00,10,6,0,15,7,21,0.00,5,Fog-Rain,274
2013-6-23,84,72,60,70,66,61,100,82,54,30.05,29.97,29.89,10,8,0,15,6,18,0.00,2,Fog-Rain,189
2013-6-24,80,74,69,70,67,63,89,78,69,30.01,29.95,29.88,10,10,7,14,8,17,0.00,1,,226
2013-6-25,78,70,61,68,65,60,96,81,67,29.91,29.88,29.85,10,10,10,16,7,23,0.00,2,,229
2013-6-26,76,68,60,69,64,60,100,88,68,29.87,29.83,29.78,10,9,0,13,2,,0.00,1,Fog,324
2013-6-27,78,70,60,65,63,60,99,89,60,29.83,29.76,29.71,10,10,7,13,4,,0.00,4,Rain,320
2013-6-28,71,64,58,65,62,58,100,90,74,29.70,29.66,29.63,10,10,0,16,5,21,0.00,4,,338
2013-6-29,70,65,60,63,59,56,99,82,67,29.85,29.73,29.66,10,10,2,13,7,20,0.00,4,Rain,2
2013-6-30,73,65,57,57,52,42,88,63,32,30.08,29.98,29.85,10,10,1,14,5,21,0.00,0,,357